Date,TemperatureHighF,TemperatureAvgF,TemperatureLowF,DewpointHighF,DewpointAvgF,DewpointLowF,HumidityHigh,HumidityAvg,HumidityLow,PressureMaxIn,PressureMinIn,WindSpeedMaxMPH,WindSpeedAvgMPH,GustSpeedMaxMPH,PrecipitationSumIn
2013-1-2,-12.0,-12.5,-13.3,-18.5,-19.1,-19.7,72,72,71,30.22,30.21,3,0,3,0.00
2013-1-3,11.9,-4.4,-18.4,-0.4,-12.7,-25.8,79,67,47,30.25,29.89,4,0,4,0.00
2013-1-4,30.0,24.8,5.2,25.4,18.6,-0.4,88,77,64,29.89,29.68,18,5,18,0.00
2013-1-5,30.9,20.9,5.2,24.0,12.5,1.1,84,70,51,30.21,29.71,21,2,21,0.05
2013-1-6,31.6,22.9,7.6,28.9,19.1,3.5,91,85,78,30.17,29.84,15,3,15,0.00
2013-1-7,30.0,16.7,2.0,27.2,10.7,-2.5,90,78,53,30.33,29.89,15,0,16,0.08
2013-1-8,41.1,28.7,9.3,23.1,17.9,4.2,89,65,46,30.33,30.12,19,3,19,0.05
2013-1-9,41.3,25.9,9.0,29.4,18.3,5.1,88,74,51,30.34,29.84,24,3,24,0.00
2013-1-10,37.8,32.9,22.5,30.3,23.9,18.3,88,70,59,30.51,29.92,17,2,17,0.03
2013-1-11,37.9,28.1,15.7,33.1,21.4,12.8,90,77,50,30.51,30.03,23,4,23,0.07
2013-1-12,44.1,37.2,33.8,37.8,34.1,31.2,95,89,77,30.09,29.99,18,2,18,0.00
2013-1-13,53.2,39.5,33.1,47.4,36.8,31.8,95,90,74,30.07,29.81,17,2,17,0.01
2013-1-14,53.5,41.5,31.5,48.1,33.0,22.6,97,73,51,30.21,29.69,22,3,22,0.00
2013-1-15,32.2,27.6,20.2,25.5,18.8,15.4,85,70,53,30.29,30.20,10,1,10,0.00
2013-1-16,30.7,26.6,22.9,26.0,22.2,18.2,92,83,73,30.20,29.71,16,1,16,0.00
2013-1-17,32.4,19.9,3.7,26.0,8.5,-8.3,85,62,34,30.14,29.71,17,2,17,0.01
2013-1-18,18.9,5.4,-10.3,5.3,-8.2,-16.8,75,55,33,30.34,30.13,17,2,17,0.00
2013-1-19,41.8,31.0,17.5,24.3,17.8,5.7,87,59,44,30.18,29.66,21,6,21,0.01
2013-1-20,44.5,32.9,12.4,31.4,19.0,5.5,88,58,42,29.90,29.32,31,6,31,0.07
2013-1-21,18.1,10.3,-0.8,6.5,0.5,-6.5,81,65,40,30.02,29.78,13,1,13,0.00
2013-1-22,16.7,6.6,-2.0,4.6,-3.3,-17.9,80,65,40,30.03,29.76,13,1,13,0.00
2013-1-23,0.5,-6.1,-15.8,-10.3,-19.1,-23.3,68,53,37,30.16,30.03,11,1,11,0.00
2013-1-24,9.7,-4.7,-18.7,-11.0,-17.9,-26.3,72,54,29,30.31,30.12,19,2,19,0.01
2013-1-25,15.1,4.5,-7.7,-1.9,-8.3,-15.9,72,56,32,30.34,30.07,14,1,14,0.00
2013-1-26,15.6,7.0,-4.6,2.6,-3.5,-10.2,78,63,36,30.24,30.05,13,1,13,0.00
2013-1-27,19.7,8.0,-1.8,1.9,-5.9,-12.2,75,55,25,30.49,30.24,15,1,15,0.00
2013-1-28,18.0,9.3,-2.6,14.5,3.8,-8.0,86,78,59,30.45,29.99,5,0,5,0.00
2013-1-29,35.0,24.0,14.8,29.8,19.4,10.9,88,82,75,30.15,29.94,27,2,27,0.04
2013-1-30,57.5,44.7,32.7,51.8,37.0,-99.9,100,84,79,29.94,29.20,113,15,113,0.38
2013-1-31,55.3,37.7,21.3,49.6,27.6,4.0,92,68,45,29.44,28.72,34,7,34,0.37
2013-2-1,21.3,14.2,8.4,9.1,4.1,-1.9,77,64,48,30.07,29.44,22,2,22,0.00
2013-2-2,19.4,16.1,6.3,9.0,5.6,0.3,83,63,51,30.14,29.99,18,4,18,0.00
2013-2-3,28.4,15.4,3.9,14.8,7.3,-0.6,85,72,44,30.00,29.69,10,0,10,0.00
2013-2-4,22.2,14.8,5.2,12.9,3.5,-9.8,83,62,41,29.89,29.66,21,2,21,0.00
2013-2-5,21.9,9.9,-4.6,4.3,-4.9,-12.8,77,52,28,30.01,29.86,10,1,10,0.00
2013-2-6,25.8,17.5,6.5,20.8,5.3,-13.7,83,60,31,30.32,29.83,17,2,17,0.00
2013-2-7,15.6,8.3,-0.4,-1.4,-8.1,-14.3,64,47,30,30.53,30.32,12,1,12,0.01
2013-2-8,21.0,16.8,11.2,17.6,11.6,-1.0,88,80,56,30.42,29.91,18,2,18,0.00
2013-2-9,17.0,9.2,-2.0,12.1,1.1,-7.7,84,70,55,30.32,29.91,22,4,22,0.00
2013-2-10,31.2,7.2,-11.7,9.2,-5.5,-18.2,79,60,25,30.47,30.32,6,0,6,0.04
2013-5-19,64.3,56.3,54.5,54.7,51.7,50.4,86,84,71,30.14,30.02,10,6,0,0.13
2013-5-20,66.4,59.8,51.7,59.9,55.2,50.0,94,85,72,30.01,29.91,9,2,0,0.06
2013-5-21,71.5,61.0,50.5,62.7,56.7,49.0,95,86,67,29.92,29.76,8,2,0,0.91
2013-5-22,78.1,63.8,52.3,64.5,58.5,49.7,94,84,60,29.83,29.68,56,6,0,1.39
2013-5-23,76.7,67.6,60.9,64.4,61.3,59.2,95,81,58,29.71,29.62,17,4,9,0.38
2013-5-24,44.6,43.7,43.1,41.7,41.1,40.4,93,90,86,29.97,29.89,18,3,18,0.74
2013-5-25,43.1,40.1,35.9,41.2,37.7,33.3,93,91,86,29.96,29.84,25,5,25,1.24
2013-5-26,47.7,41.7,34.3,42.5,37.3,32.0,92,84,70,30.04,29.79,16,2,16,0.06
2013-5-27,64.2,48.7,30.9,44.5,36.0,29.4,95,67,34,30.13,30.01,19,1,19,0.01
2013-5-28,71.5,54.8,32.4,49.4,39.0,30.6,95,62,27,30.18,30.04,14,1,14,0.00
2013-5-29,65.6,59.2,52.6,62.0,53.6,43.0,95,82,54,30.04,29.86,22,3,22,0.39
2013-5-30,82.2,70.1,58.6,65.6,61.3,56.3,95,75,50,30.00,29.89,12,1,12,0.00
2013-5-31,89.5,73.7,56.2,68.5,60.7,54.6,95,68,40,29.99,29.81,16,1,16,0.00
2013-6-1,88.8,74.7,58.7,67.5,61.9,56.7,94,67,36,29.85,29.70,20,3,20,0.25
2013-6-2,85.1,71.4,64.5,69.3,64.2,56.3,95,79,49,29.78,29.57,18,4,18,0.49
2013-6-3,68.1,61.8,46.4,58.6,51.9,42.5,88,71,53,29.80,29.67,16,2,16,0.00
2013-6-4,61.5,51.5,41.2,45.8,42.1,38.8,93,72,46,30.06,29.80,17,1,17,0.00
2013-6-5,68.9,55.2,37.9,46.9,41.3,29.2,94,64,25,30.15,30.06,10,1,10,0.00
2013-6-6,64.7,54.2,47.0,51.5,47.6,43.6,94,80,51,30.14,30.02,11,1,11,0.22
2013-6-7,54.7,52.4,50.7,51.4,48.9,46.6,95,88,78,30.03,29.84,19,3,19,0.60
2013-6-8,62.4,56.2,51.1,56.8,52.9,49.7,95,89,76,29.96,29.72,12,1,12,0.20
2013-6-9,74.2,61.3,48.6,59.2,53.8,46.6,95,78,49,30.15,29.95,14,1,14,0.01
2013-6-10,74.4,59.7,44.6,59.4,50.4,40.6,95,75,35,30.16,29.91,14,1,14,0.09
2013-6-11,58.9,56.0,54.4,57.5,54.2,52.1,95,94,86,29.91,29.53,13,1,13,1.48
2013-6-12,66.6,56.6,49.9,54.9,51.9,48.0,95,85,61,29.80,29.55,20,2,20,0.08
2013-6-13,68.9,57.4,42.6,57.7,49.4,41.3,96,77,46,29.78,29.63,10,1,10,0.01
2013-6-14,75.3,61.6,48.5,57.5,51.8,47.0,95,74,44,29.78,29.63,18,2,18,0.00
2013-6-15,73.0,58.6,40.9,49.3,44.3,39.2,95,64,34,29.88,29.78,14,1,14,0.00
2013-6-16,69.9,58.1,45.5,59.6,52.4,43.6,94,83,52,29.85,29.63,13,2,13,0.47
2013-6-22,78.1,63.9,54.7,64.5,59.0,52.2,95,85,62,30.15,30.03,4,0,0,0.28
2013-6-23,81.6,70.8,62.3,70.9,66.2,60.8,95,86,65,30.03,29.88,15,2,0,1.00
2013-6-24,86.1,73.8,65.8,71.4,66.8,62.8,95,80,59,29.91,29.78,6,2,0,0.22
2013-6-25,86.3,71.4,62.1,70.4,65.3,60.0,95,83,53,29.83,29.66,4,2,0,0.86
2013-6-26,74.2,67.1,63.2,67.4,64.4,61.7,96,92,70,29.74,29.66,5,1,0,0.22
2013-6-28,75.4,68.2,61.8,68.0,62.7,59.9,95,83,67,29.44,29.34,8,2,21,0.90
2013-6-29,79.2,67.2,60.7,65.9,62.1,59.3,96,85,55,29.60,29.41,7,1,11,0.21
2013-6-30,81.1,70.7,62.0,68.6,63.5,60.8,96,80,53,29.86,29.60,5,1,11,0.30
2013-7-1,72.5,67.3,59.9,66.5,63.3,58.2,96,87,74,30.04,29.85,5,1,11,0.32
2013-7-2,78.5,68.4,60.1,71.6,65.0,58.4,96,89,73,30.06,29.99,4,1,11,0.51
2013-7-3,82.2,71.3,65.5,73.2,68.0,64.3,96,90,66,30.10,30.03,6,1,12,0.37
2013-7-4,87.2,72.9,65.5,74.8,68.8,64.3,96,88,54,30.11,30.00,6,1,12,1.73
2013-7-5,87.2,73.9,64.3,73.6,68.6,63.0,96,85,57,30.08,29.96,5,1,11,0.50
2013-7-6,83.2,73.1,63.2,69.5,66.2,61.1,96,81,54,30.00,29.91,4,1,11,0.00
2013-7-7,82.8,70.8,61.0,69.4,64.0,59.3,95,81,58,29.97,29.86,6,1,11,0.01
2013-7-8,77.6,70.7,65.8,70.5,67.4,64.0,96,90,74,29.98,29.85,2,0,11,0.51
2013-7-9,83.0,71.6,62.1,72.3,66.3,60.9,96,85,58,30.01,29.92,9,2,18,0.15
2013-7-10,77.9,73.7,69.9,69.6,67.2,65.0,86,80,72,29.92,29.64,9,6,19,0.01
2013-7-11,75.4,70.0,65.8,68.8,66.4,64.0,95,89,78,29.76,29.63,7,2,11,0.47
2013-7-18,77.4,76.7,75.8,71.1,70.7,70.4,84,82,81,29.87,29.86,2,1,0,0.00
2013-7-19,82.0,70.3,68.9,71.7,66.5,65.5,95,88,71,29.82,29.63,5,3,0,0.28
2013-7-20,77.0,69.5,65.6,59.9,58.8,56.9,79,70,50,29.68,29.63,1,0,8,0.07
2013-12-9,36.6,33.3,28.7,30.3,27.4,22.7,85,78,71,29.90,29.77,34,8,34,0.00
2013-12-10,34.1,26.9,19.1,26.9,15.4,5.5,80,62,50,29.88,29.72,19,2,19,0.00
2013-12-11,20.3,18.4,16.2,8.2,5.7,4.1,62,57,52,30.03,29.88,13,3,13,0.00
2013-12-12,16.5,14.0,12.1,6.6,1.1,-4.6,71,56,42,30.14,29.89,17,4,17,0.00
2013-12-13,15.1,9.0,-4.1,10.7,0.3,-12.0,83,67,51,30.41,29.83,15,2,15,0.01
2013-12-14,6.5,-1.0,-11.2,1.9,-9.0,-17.4,81,69,52,30.61,30.18,6,0,6,0.00
2013-12-15,21.0,14.7,6.5,16.7,10.5,1.9,86,83,79,30.18,29.49,5,0,5,0.00
2013-12-16,15.9,6.0,-13.3,9.8,-2.5,-19.7,85,68,50,30.23,29.65,9,1,9,0.02
2013-12-17,12.8,-2.8,-19.6,5.7,-9.6,-27.2,80,72,60,30.28,30.00,17,1,17,0.00
2013-12-18,27.0,17.8,2.6,18.8,11.5,-2.2,82,76,66,30.00,29.87,14,1,14,0.00
2013-12-19,34.0,29.6,24.4,26.1,21.4,16.6,88,72,60,30.01,29.83,13,3,13,0.00
2013-12-20,33.1,31.7,30.0,31.3,28.9,24.9,95,89,73,30.02,29.81,3,0,4,0.00
2013-12-21,53.5,39.2,31.3,48.0,36.7,30.0,96,91,78,29.86,29.69,21,2,30,0.52
2013-12-22,33.1,32.3,31.2,31.8,30.8,29.4,95,94,93,29.86,29.67,10,0,10,0.67
2013-12-27,27.9,25.1,20.5,21.6,19.5,14.8,85,79,64,30.15,30.07,12,3,12,0.00
2013-12-28,37.6,32.7,17.8,31.0,25.2,12.6,89,74,66,30.07,29.90,18,4,18,0.00
2013-12-29,44.5,33.0,23.9,32.5,28.1,21.9,94,84,49,29.92,29.50,20,1,20,0.20
2013-12-30,36.8,18.0,0.7,33.8,10.7,-7.7,95,73,56,30.19,29.49,25,2,25,0.01
2013-12-31,15.9,7.3,0.9,8.8,-0.4,-6.7,84,70,54,30.18,29.97,12,1,13,0.00
2014-1-1,14.4,8.2,-3.1,5.3,-1.3,-13.9,76,65,58,30.41,30.08,13,2,13,0.00
2014-1-2,0.3,-2.7,-6.1,-6.4,-10.6,-15.0,75,69,59,30.41,30.00,17,3,17,0.00